Time;durP1;ratioP1;P1;durP2;ratioP2;P2;SDS_P1;SDS_P2;PMS_P1;PMS_P2;Temp;Humidity;BMP_temperature;BMP_pressure;BME280_temperature;BME280_humidity;BME280_pressure;Samples;Min_cycle;Max_cycle;Signal;HPM_P1;HPM_P2
2021/09/10 00:00:54;;;;;;;14.82;8.50;;;;;;;;;;4964097;28;20484;-87
2021/09/10 00:03:20;;;;;;;12.73;8.83;;;;;;;;;;4964354;28;20414;-86
2021/09/10 00:05:47;;;;;;;11.10;8.33;;;;;;;;;;4962932;28;20521;-87
2021/09/10 00:08:14;;;;;;;14.67;8.17;;;;;;;;;;4964689;28;20410;-86
2021/09/10 00:10:41;;;;;;;11.23;8.43;;;;;;;;;;4963960;28;20493;-86
2021/09/10 00:13:09;;;;;;;9.53;7.97;;;;;;;;;;4965030;28;20410;-85
2021/09/10 00:15:36;;;;;;;12.45;8.50;;;;;;;;;;4965194;28;20508;-86
2021/09/10 00:18:03;;;;;;;10.07;7.93;;;;;;;;;;4967863;28;20923;-87
2021/09/10 00:20:30;;;;;;;11.93;8.25;;;;;;;;;;4960045;28;20469;-87
2021/09/10 00:22:57;;;;;;;10.40;8.48;;;;;;;;;;4967616;28;20416;-87
2021/09/10 00:25:23;;;;;;;12.02;8.82;;;;;;;;;;4964709;28;20411;-87
2021/09/10 00:27:50;;;;;;;12.75;8.52;;;;;;;;;;4958993;28;20815;-86
2021/09/10 00:30:19;;;;;;;11.10;8.57;;;;;;;;;;4967753;28;20422;-87
2021/09/10 00:32:46;;;;;;;10.55;8.52;;;;;;;;;;4964685;28;20406;-87
2021/09/10 00:35:13;;;;;;;13.88;8.77;;;;;;;;;;4961476;28;20410;-87
2021/09/10 00:37:39;;;;;;;16.10;9.00;;;;;;;;;;4963482;28;20483;-86
2021/09/10 00:40:08;;;;;;;12.33;8.40;;;;;;;;;;4965251;28;20466;-87
2021/09/10 00:42:35;;;;;;;11.18;8.85;;;;;;;;;;4944502;28;20406;-88
2021/09/10 00:45:02;;;;;;;11.07;8.85;;;;;;;;;;4966422;28;20446;-87
2021/09/10 00:47:30;;;;;;;9.88;8.73;;;;;;;;;;4965235;28;20418;-87
2021/09/10 00:49:57;;;;;;;10.98;8.65;;;;;;;;;;4962745;28;20803;-86
2021/09/10 00:52:24;;;;;;;12.40;8.50;;;;;;;;;;4969248;28;20400;-87
2021/09/10 00:54:51;;;;;;;16.00;8.93;;;;;;;;;;4967175;28;20445;-87
2021/09/10 00:57:19;;;;;;;11.98;8.10;;;;;;;;;;4965824;28;20414;-87
2021/09/10 00:59:45;;;;;;;10.95;7.88;;;;;;;;;;4959809;28;20438;-88
2021/09/10 01:02:13;;;;;;;10.80;8.10;;;;;;;;;;4961179;28;20416;-86
2021/09/10 01:04:42;;;;;;;12.20;8.18;;;;;;;;;;4964117;28;20435;-88
2021/09/10 01:07:11;;;;;;;10.37;7.83;;;;;;;;;;4965044;28;20411;-86
2021/09/10 01:09:39;;;;;;;11.37;8.17;;;;;;;;;;4964448;28;20481;-86
2021/09/10 01:12:07;;;;;;;11.50;8.33;;;;;;;;;;4962844;28;20526;-87
2021/09/10 01:14:34;;;;;;;10.40;7.82;;;;;;;;;;4963305;28;20886;-88
2021/09/10 01:17:02;;;;;;;10.27;8.10;;;;;;;;;;4966463;28;20422;-86
2021/09/10 01:19:31;;;;;;;10.67;8.10;;;;;;;;;;4970593;28;20495;-88
2021/09/10 01:22:03;;;;;;;11.77;7.85;;;;;;;;;;4966531;28;20425;-85
2021/09/10 01:24:33;;;;;;;9.68;7.18;;;;;;;;;;4965423;28;20457;-87
2021/09/10 01:27:00;;;;;;;9.77;7.40;;;;;;;;;;4964756;28;20765;-87
2021/09/10 01:29:28;;;;;;;10.35;7.55;;;;;;;;;;4965968;28;20406;-87
2021/09/10 01:31:56;;;;;;;11.85;8.00;;;;;;;;;;4964343;28;20426;-88
2021/09/10 01:34:23;;;;;;;10.38;7.03;;;;;;;;;;4965145;28;20413;-87
2021/09/10 01:36:50;;;;;;;8.90;6.93;;;;;;;;;;4958832;28;20863;-86
2021/09/10 01:39:17;;;;;;;8.68;6.90;;;;;;;;;;4964019;28;20402;-87
2021/09/10 01:41:45;;;;;;;7.90;7.10;;;;;;;;;;4960151;28;20414;-87
2021/09/10 01:44:12;;;;;;;8.82;6.75;;;;;;;;;;4963337;28;21019;-86
2021/09/10 01:46:40;;;;;;;9.52;7.63;;;;;;;;;;4963858;28;20417;-86
2021/09/10 01:49:07;;;;;;;12.02;8.68;;;;;;;;;;4965677;28;20416;-87
2021/09/10 01:51:34;;;;;;;12.70;8.63;;;;;;;;;;4964635;28;20437;-87
2021/09/10 01:54:02;;;;;;;12.77;9.30;;;;;;;;;;4963312;28;20406;-86
2021/09/10 01:56:29;;;;;;;12.35;9.85;;;;;;;;;;4965045;28;20418;-87
2021/09/10 01:58:57;;;;;;;11.98;9.80;;;;;;;;;;4959043;28;20890;-87
2021/09/10 02:01:25;;;;;;;11.30;10.10;;;;;;;;;;4962268;28;20414;-87
2021/09/10 02:03:52;;;;;;;12.93;10.20;;;;;;;;;;4956373;28;20475;-87
2021/09/10 02:06:19;;;;;;;12.40;9.68;;;;;;;;;;4964087;28;20425;-87
2021/09/10 02:08:47;;;;;;;12.83;9.70;;;;;;;;;;4965926;28;20469;-87
2021/09/10 02:11:14;;;;;;;13.55;9.70;;;;;;;;;;4964331;28;20442;-87
2021/09/10 02:13:41;;;;;;;10.73;9.67;;;;;;;;;;4956574;28;20950;-87
2021/09/10 02:16:11;;;;;;;12.60;10.35;;;;;;;;;;4961412;28;20418;-88
2021/09/10 02:18:39;;;;;;;12.70;10.27;;;;;;;;;;4961687;28;21054;-87
2021/09/10 02:21:06;;;;;;;11.50;10.20;;;;;;;;;;4966342;28;20406;-88
2021/09/10 02:23:32;;;;;;;11.73;10.27;;;;;;;;;;4971087;28;20770;-87
2021/09/10 02:26:00;;;;;;;12.07;10.43;;;;;;;;;;4971721;28;20414;-87
2021/09/10 02:28:27;;;;;;;11.85;10.38;;;;;;;;;;4966800;28;22077;-87
2021/09/10 02:30:54;;;;;;;11.98;10.10;;;;;;;;;;4969433;28;20421;-87
2021/09/10 02:33:22;;;;;;;12.02;9.75;;;;;;;;;;4971737;28;20412;-86
2021/09/10 02:35:49;;;;;;;10.77;9.65;;;;;;;;;;4969632;28;20402;-88
2021/09/10 02:38:16;;;;;;;11.52;10.32;;;;;;;;;;4969539;28;22686;-87
2021/09/10 02:40:43;;;;;;;11.80;9.40;;;;;;;;;;4965265;28;21015;-86
2021/09/10 02:43:09;;;;;;;10.40;9.30;;;;;;;;;;4964831;28;20418;-87
2021/09/10 02:45:36;;;;;;;12.15;9.23;;;;;;;;;;4959871;28;20421;-87
2021/09/10 02:48:04;;;;;;;10.52;9.30;;;;;;;;;;4960912;28;20887;-87
2021/09/10 02:50:32;;;;;;;10.77;9.68;;;;;;;;;;4968218;28;20407;-88
2021/09/10 02:52:59;;;;;;;11.65;9.68;;;;;;;;;;4972010;28;20421;-87
2021/09/10 02:55:26;;;;;;;10.90;9.30;;;;;;;;;;4959865;28;20416;-85
2021/09/10 02:57:53;;;;;;;11.32;9.43;;;;;;;;;;4987375;28;20408;-88
2021/09/10 03:00:20;;;;;;;12.05;9.80;;;;;;;;;;4982919;28;20425;-87
2021/09/10 03:02:47;;;;;;;12.05;9.55;;;;;;;;;;4968621;28;20398;-87
2021/09/10 03:05:14;;;;;;;13.32;10.20;;;;;;;;;;4967173;28;20430;-88
2021/09/10 03:07:42;;;;;;;15.13;9.70;;;;;;;;;;4972356;28;20513;-88
2021/09/10 03:10:10;;;;;;;10.48;9.38;;;;;;;;;;4972705;28;20410;-87
2021/09/10 03:12:38;;;;;;;14.95;10.10;;;;;;;;;;4965409;28;20422;-87
2021/09/10 03:15:06;;;;;;;14.82;9.77;;;;;;;;;;4974695;28;20418;-88
2021/09/10 03:17:33;;;;;;;10.40;9.20;;;;;;;;;;4958143;28;20813;-87
2021/09/10 03:19:59;;;;;;;10.90;9.70;;;;;;;;;;4968288;28;20402;-88
2021/09/10 03:22:26;;;;;;;11.38;9.82;;;;;;;;;;4974121;28;20908;-88
2021/09/10 03:24:55;;;;;;;14.75;9.10;;;;;;;;;;4967528;28;20406;-88
2021/09/10 03:27:22;;;;;;;12.00;9.50;;;;;;;;;;4968019;28;20414;-88
2021/09/10 03:29:48;;;;;;;13.82;8.90;;;;;;;;;;4968050;28;20413;-87
2021/09/10 03:32:15;;;;;;;11.27;9.45;;;;;;;;;;4967813;28;20437;-87
2021/09/10 03:34:42;;;;;;;11.88;9.88;;;;;;;;;;4968193;28;20417;-88
2021/09/10 03:37:11;;;;;;;10.65;9.55;;;;;;;;;;4965431;28;20410;-87
2021/09/10 03:39:38;;;;;;;13.07;9.80;;;;;;;;;;4974701;28;20968;-87
2021/09/10 03:42:06;;;;;;;12.35;9.63;;;;;;;;;;4957452;28;20409;-87
2021/09/10 03:44:33;;;;;;;10.55;9.45;;;;;;;;;;4960278;28;20416;-87
2021/09/10 03:47:04;;;;;;;10.95;9.18;;;;;;;;;;4965822;28;20419;-86
2021/09/10 03:49:31;;;;;;;10.98;9.38;;;;;;;;;;4959954;28;20441;-88
2021/09/10 03:51:58;;;;;;;10.95;9.52;;;;;;;;;;4964733;28;20435;-87
2021/09/10 03:54:25;;;;;;;12.85;9.30;;;;;;;;;;4967506;28;20426;-84
2021/09/10 03:56:51;;;;;;;10.38;8.95;;;;;;;;;;4967766;28;20419;-87
2021/09/10 03:59:20;;;;;;;11.20;9.23;;;;;;;;;;4967427;28;20410;-87
2021/09/10 04:01:47;;;;;;;10.52;9.40;;;;;;;;;;4966692;28;20414;-87
2021/09/10 04:04:13;;;;;;;15.05;9.77;;;;;;;;;;4962636;28;20422;-88
2021/09/10 04:06:40;;;;;;;13.25;9.93;;;;;;;;;;4959060;28;20420;-88
2021/09/10 04:09:07;;;;;;;11.25;9.68;;;;;;;;;;4965726;28;20406;-87
2021/09/10 04:11:36;;;;;;;12.65;9.13;;;;;;;;;;4966080;28;20752;-87
2021/09/10 04:14:02;;;;;;;10.30;9.25;;;;;;;;;;4966561;28;20413;-86
2021/09/10 04:16:32;;;;;;;13.18;9.90;;;;;;;;;;4966455;28;20403;-87
2021/09/10 04:18:59;;;;;;;11.30;10.10;;;;;;;;;;4968976;28;20492;-87
2021/09/10 04:21:26;;;;;;;12.57;10.18;;;;;;;;;;4965938;28;20413;-87
2021/09/10 04:23:52;;;;;;;11.93;10.13;;;;;;;;;;4969265;28;20403;-87
2021/09/10 04:26:19;;;;;;;11.60;9.60;;;;;;;;;;4966004;28;20898;-87
2021/09/10 04:28:47;;;;;;;10.57;9.48;;;;;;;;;;4963591;28;20410;-87
2021/09/10 04:31:14;;;;;;;12.93;9.48;;;;;;;;;;4962679;28;20428;-87
2021/09/10 04:33:45;;;;;;;10.90;9.18;;;;;;;;;;4964584;28;20422;-87
2021/09/10 04:36:12;;;;;;;12.25;9.68;;;;;;;;;;4966565;28;20891;-86
2021/09/10 04:38:39;;;;;;;17.65;12.20;;;;;;;;;;4965698;28;20433;-86
2021/09/10 04:41:07;;;;;;;12.02;9.57;;;;;;;;;;4966126;28;20426;-86
2021/09/10 04:43:34;;;;;;;12.32;9.73;;;;;;;;;;4964039;28;20410;-87
2021/09/10 04:46:01;;;;;;;12.32;8.80;;;;;;;;;;4965870;28;20433;-86
2021/09/10 04:48:28;;;;;;;12.55;10.13;;;;;;;;;;4966323;28;20410;-87
2021/09/10 04:50:56;;;;;;;11.77;9.32;;;;;;;;;;4961549;28;20412;-87
2021/09/10 04:53:23;;;;;;;12.00;10.02;;;;;;;;;;4966375;28;20787;-87
2021/09/10 04:55:49;;;;;;;12.77;9.60;;;;;;;;;;4965796;28;20755;-86
2021/09/10 04:58:17;;;;;;;11.70;9.73;;;;;;;;;;4962754;28;20771;-87
2021/09/10 05:00:44;;;;;;;12.52;9.77;;;;;;;;;;4965482;28;20403;-86
2021/09/10 05:03:11;;;;;;;10.70;9.60;;;;;;;;;;4958533;28;20761;-87
2021/09/10 05:05:38;;;;;;;11.45;10.23;;;;;;;;;;4963124;28;20410;-87
2021/09/10 05:08:06;;;;;;;11.30;10.05;;;;;;;;;;4962106;28;20851;-88
2021/09/10 05:10:33;;;;;;;13.48;10.55;;;;;;;;;;4960022;28;20400;-88
2021/09/10 05:13:00;;;;;;;15.25;10.40;;;;;;;;;;4966057;28;20825;-87
2021/09/10 05:15:27;;;;;;;11.27;10.15;;;;;;;;;;4965551;28;20473;-87
2021/09/10 05:17:54;;;;;;;14.82;10.88;;;;;;;;;;4965918;28;20419;-87
2021/09/10 05:20:20;;;;;;;15.65;11.15;;;;;;;;;;4965925;28;20740;-87
2021/09/10 05:22:47;;;;;;;13.13;11.00;;;;;;;;;;4965523;28;20899;-87
2021/09/10 05:25:15;;;;;;;14.05;10.82;;;;;;;;;;4965156;28;20415;-87
2021/09/10 05:27:42;;;;;;;12.65;10.65;;;;;;;;;;4961676;28;20414;-87
2021/09/10 05:30:09;;;;;;;11.45;10.25;;;;;;;;;;4963219;28;20429;-88
2021/09/10 05:32:36;;;;;;;13.55;10.68;;;;;;;;;;4964000;28;20439;-89
2021/09/10 05:35:04;;;;;;;11.85;10.60;;;;;;;;;;4961174;28;20414;-87
2021/09/10 05:37:31;;;;;;;15.82;10.80;;;;;;;;;;4964758;28;20406;-86
2021/09/10 05:39:58;;;;;;;12.47;10.87;;;;;;;;;;4963507;28;20414;-86
2021/09/10 05:42:26;;;;;;;13.70;11.57;;;;;;;;;;4965707;28;20414;-84
2021/09/10 05:44:53;;;;;;;12.77;10.77;;;;;;;;;;4963194;28;20406;-86
2021/09/10 05:47:20;;;;;;;13.40;10.77;;;;;;;;;;4963591;28;20407;-85
2021/09/10 05:49:47;;;;;;;14.40;11.10;;;;;;;;;;4964293;28;20886;-85
2021/09/10 05:52:14;;;;;;;13.77;10.95;;;;;;;;;;4964772;28;20425;-85
2021/09/10 05:54:41;;;;;;;13.75;11.18;;;;;;;;;;4961809;28;20920;-84
2021/09/10 05:57:08;;;;;;;15.30;11.18;;;;;;;;;;4965158;28;20411;-85
2021/09/10 05:59:36;;;;;;;15.70;12.02;;;;;;;;;;4964708;28;20414;-86
2021/09/10 06:02:03;;;;;;;14.77;12.50;;;;;;;;;;4965748;28;20472;-85
2021/09/10 06:04:30;;;;;;;14.35;12.02;;;;;;;;;;4964301;28;20418;-84
2021/09/10 06:06:57;;;;;;;18.55;12.60;;;;;;;;;;4969535;28;20894;-85
2021/09/10 06:09:24;;;;;;;13.27;10.30;;;;;;;;;;4969120;28;20410;-86
2021/09/10 06:11:50;;;;;;;15.10;10.98;;;;;;;;;;4966331;28;20425;-85
2021/09/10 06:14:17;;;;;;;16.38;11.27;;;;;;;;;;4973141;28;20422;-85
2021/09/10 06:16:46;;;;;;;13.60;11.27;;;;;;;;;;4969647;28;20419;-84
2021/09/10 06:19:13;;;;;;;16.63;11.32;;;;;;;;;;4966350;28;20410;-86
2021/09/10 06:21:39;;;;;;;15.48;10.50;;;;;;;;;;4970302;28;20891;-85
2021/09/10 06:24:06;;;;;;;12.80;10.05;;;;;;;;;;4967192;28;20485;-86
2021/09/10 06:26:34;;;;;;;12.57;10.65;;;;;;;;;;4968209;28;20406;-86
2021/09/10 06:29:01;;;;;;;13.85;10.05;;;;;;;;;;4968374;28;20489;-86
2021/09/10 06:31:28;;;;;;;12.30;9.77;;;;;;;;;;4965098;28;20417;-86
2021/09/10 06:33:56;;;;;;;12.95;9.25;;;;;;;;;;4970439;28;20431;-85
2021/09/10 06:36:23;;;;;;;11.75;9.07;;;;;;;;;;4966489;28;20410;-85
2021/09/10 06:38:50;;;;;;;11.30;8.70;;;;;;;;;;4969516;28;20899;-85
2021/09/10 06:41:17;;;;;;;11.70;9.13;;;;;;;;;;4975703;28;20413;-85
2021/09/10 06:43:44;;;;;;;11.43;8.63;;;;;;;;;;4972316;28;20403;-86
2021/09/10 06:46:11;;;;;;;11.27;8.50;;;;;;;;;;4962001;28;20429;-85
2021/09/10 06:48:38;;;;;;;12.63;8.97;;;;;;;;;;4968401;28;20411;-86
2021/09/10 06:51:06;;;;;;;12.20;8.20;;;;;;;;;;4968691;28;20413;-86
2021/09/10 06:53:35;;;;;;;11.68;8.70;;;;;;;;;;4968818;28;20427;-85
2021/09/10 06:56:02;;;;;;;11.40;9.07;;;;;;;;;;4966319;28;20407;-86
2021/09/10 06:58:29;;;;;;;11.70;9.00;;;;;;;;;;4964468;28;20473;-86
2021/09/10 07:00:56;;;;;;;13.20;8.95;;;;;;;;;;4966680;28;20415;-86
2021/09/10 07:03:23;;;;;;;11.65;9.32;;;;;;;;;;4966216;28;20418;-85
2021/09/10 07:05:50;;;;;;;9.68;8.13;;;;;;;;;;4967495;28;20414;-86
2021/09/10 07:08:18;;;;;;;12.48;8.48;;;;;;;;;;4964010;28;20438;-85
2021/09/10 07:10:45;;;;;;;14.00;8.23;;;;;;;;;;4964041;28;20411;-86
2021/09/10 07:13:12;;;;;;;12.18;8.45;;;;;;;;;;4967877;28;20454;-86
2021/09/10 07:15:40;;;;;;;11.60;8.02;;;;;;;;;;4968067;28;20406;-85
2021/09/10 07:18:08;;;;;;;11.38;8.10;;;;;;;;;;4963144;28;20434;-86
2021/09/10 07:20:34;;;;;;;11.27;7.78;;;;;;;;;;4971842;28;20777;-86
2021/09/10 07:23:01;;;;;;;10.43;7.82;;;;;;;;;;4968320;28;20411;-86
2021/09/10 07:25:30;;;;;;;8.52;7.63;;;;;;;;;;4972114;28;20961;-86
2021/09/10 07:27:57;;;;;;;14.10;7.32;;;;;;;;;;4963499;28;20410;-86
2021/09/10 07:30:24;;;;;;;10.27;7.22;;;;;;;;;;4963996;28;20506;-86
2021/09/10 07:32:50;;;;;;;8.40;6.57;;;;;;;;;;4967474;28;20427;-86
2021/09/10 07:35:17;;;;;;;8.68;6.28;;;;;;;;;;4970075;28;20396;-85
2021/09/10 07:37:46;;;;;;;10.27;7.00;;;;;;;;;;4966175;28;20419;-86
2021/09/10 07:40:13;;;;;;;10.23;7.57;;;;;;;;;;4967386;28;21130;-85
2021/09/10 07:42:43;;;;;;;10.48;7.57;;;;;;;;;;4961687;28;20487;-86
2021/09/10 07:45:12;;;;;;;10.10;7.43;;;;;;;;;;4945605;28;20426;-86
2021/09/10 07:47:39;;;;;;;13.68;7.20;;;;;;;;;;4964285;28;20900;-86
2021/09/10 07:50:07;;;;;;;12.52;7.05;;;;;;;;;;4970393;28;20417;-86
2021/09/10 07:52:34;;;;;;;11.73;6.60;;;;;;;;;;4966860;28;20965;-85
2021/09/10 07:55:00;;;;;;;11.63;6.93;;;;;;;;;;4965846;28;20414;-86
2021/09/10 07:57:27;;;;;;;10.15;7.35;;;;;;;;;;4966018;28;20615;-86
2021/09/10 07:59:58;;;;;;;9.63;7.38;;;;;;;;;;4965448;28;20429;-87
2021/09/10 08:02:27;;;;;;;8.85;6.85;;;;;;;;;;4967049;28;20430;-87
2021/09/10 08:04:54;;;;;;;10.50;7.20;;;;;;;;;;4967070;28;20489;-87
2021/09/10 08:07:21;;;;;;;9.55;6.47;;;;;;;;;;4964818;28;20415;-86
2021/09/10 08:09:48;;;;;;;13.53;7.27;;;;;;;;;;4966231;28;20435;-87
2021/09/10 08:12:15;;;;;;;11.53;7.30;;;;;;;;;;4966033;28;20908;-85
2021/09/10 08:14:42;;;;;;;11.57;7.47;;;;;;;;;;4967700;28;20411;-86
2021/09/10 08:17:10;;;;;;;12.85;7.28;;;;;;;;;;4964791;28;20430;-86
2021/09/10 08:19:37;;;;;;;10.20;7.28;;;;;;;;;;4966415;28;20426;-87
2021/09/10 08:22:04;;;;;;;12.95;7.63;;;;;;;;;;4966777;28;20638;-87
2021/09/10 08:24:31;;;;;;;12.55;7.97;;;;;;;;;;4965282;28;20411;-86
2021/09/10 08:26:58;;;;;;;18.00;7.97;;;;;;;;;;4967458;28;20469;-85
2021/09/10 08:29:24;;;;;;;10.30;6.78;;;;;;;;;;4966938;28;20418;-85
2021/09/10 08:31:51;;;;;;;9.88;7.28;;;;;;;;;;4966425;28;20414;-86
2021/09/10 08:34:19;;;;;;;10.25;7.50;;;;;;;;;;4966540;28;20430;-85
2021/09/10 08:36:46;;;;;;;11.95;7.50;;;;;;;;;;4958583;28;20426;-86
2021/09/10 08:39:13;;;;;;;9.57;7.05;;;;;;;;;;4968307;28;20417;-86
2021/09/10 08:41:40;;;;;;;8.60;6.70;;;;;;;;;;4962520;28;20414;-86
2021/09/10 08:44:08;;;;;;;12.00;7.65;;;;;;;;;;4961029;28;20433;-86
2021/09/10 08:46:37;;;;;;;11.38;7.63;;;;;;;;;;4960537;28;20425;-85
2021/09/10 08:49:05;;;;;;;15.93;7.30;;;;;;;;;;4966524;28;20413;-86
2021/09/10 08:51:34;;;;;;;13.25;7.53;;;;;;;;;;4965087;28;20741;-86
2021/09/10 08:54:00;;;;;;;11.65;6.78;;;;;;;;;;4960045;28;20918;-87
2021/09/10 08:56:27;;;;;;;10.60;7.22;;;;;;;;;;4970651;28;20414;-87
2021/09/10 08:59:07;;;;;;;10.50;7.13;;;;;;;;;;4959472;28;20414;-87
2021/09/10 09:01:33;;;;;;;12.55;6.55;;;;;;;;;;4959305;28;20423;-86
2021/09/10 09:04:05;;;;;;;11.15;6.63;;;;;;;;;;4964634;28;20414;-87
2021/09/10 09:06:34;;;;;;;10.85;6.55;;;;;;;;;;4966098;28;20472;-85
2021/09/10 09:09:01;;;;;;;12.60;6.32;;;;;;;;;;4964828;28;20438;-86
2021/09/10 09:11:29;;;;;;;10.53;6.20;;;;;;;;;;4965598;28;20493;-87
2021/09/10 09:13:56;;;;;;;9.23;6.03;;;;;;;;;;4964085;28;20513;-87
2021/09/10 09:16:25;;;;;;;12.10;6.10;;;;;;;;;;4965271;28;20510;-87
2021/09/10 09:18:53;;;;;;;10.55;6.82;;;;;;;;;;4961260;28;20406;-86
2021/09/10 09:21:28;;;;;;;9.70;6.43;;;;;;;;;;4962078;28;20415;-87
2021/09/10 09:23:58;;;;;;;10.35;6.75;;;;;;;;;;4966822;28;20414;-86
2021/09/10 09:26:27;;;;;;;10.70;6.00;;;;;;;;;;4965750;28;20426;-86
2021/09/10 09:29:05;;;;;;;8.70;6.23;;;;;;;;;;4963893;28;20427;-87
2021/09/10 09:31:32;;;;;;;10.20;5.90;;;;;;;;;;4963821;28;20919;-87
2021/09/10 09:33:59;;;;;;;10.98;6.50;;;;;;;;;;4965444;28;20430;-86
2021/09/10 09:36:26;;;;;;;10.13;6.15;;;;;;;;;;4965141;28;20414;-87
2021/09/10 09:38:55;;;;;;;8.35;5.63;;;;;;;;;;4965310;28;20417;-87
2021/09/10 09:41:25;;;;;;;8.98;5.70;;;;;;;;;;4966291;28;20960;-87
2021/09/10 09:43:54;;;;;;;10.50;5.75;;;;;;;;;;4964746;28;20418;-87
2021/09/10 09:46:22;;;;;;;7.00;6.20;;;;;;;;;;4966106;28;20891;-87
2021/09/10 09:48:51;;;;;;;11.18;6.28;;;;;;;;;;4960989;28;20410;-86
2021/09/10 09:51:20;;;;;;;12.07;6.40;;;;;;;;;;4956651;28;20431;-86
2021/09/10 09:53:48;;;;;;;9.25;6.10;;;;;;;;;;4954722;28;20430;-87
2021/09/10 09:56:15;;;;;;;8.73;6.22;;;;;;;;;;4954806;28;20505;-87
2021/09/10 09:58:44;;;;;;;9.75;6.30;;;;;;;;;;4955715;28;20419;-87
2021/09/10 10:01:12;;;;;;;8.95;6.25;;;;;;;;;;4953847;28;20421;-86
2021/09/10 10:03:40;;;;;;;8.40;6.00;;;;;;;;;;4962875;28;20421;-86
2021/09/10 10:06:14;;;;;;;8.35;6.10;;;;;;;;;;4956598;28;20412;-86
2021/09/10 10:08:50;;;;;;;8.57;5.78;;;;;;;;;;4957925;28;20424;-87
2021/09/10 10:11:20;;;;;;;8.40;5.60;;;;;;;;;;4953346;28;20414;-87
2021/09/10 10:13:56;;;;;;;7.90;5.17;;;;;;;;;;4953576;28;20433;-86
2021/09/10 10:16:40;;;;;;;8.65;5.30;;;;;;;;;;4953178;28;20423;-86
2021/09/10 10:19:09;;;;;;;6.68;5.03;;;;;;;;;;4956042;28;20777;-87
2021/09/10 10:21:51;;;;;;;9.57;5.22;;;;;;;;;;4959973;28;20415;-86
2021/09/10 10:24:37;;;;;;;7.20;4.95;;;;;;;;;;4954091;28;20460;-86
2021/09/10 10:27:30;;;;;;;10.15;4.90;;;;;;;;;;4952728;28;20420;-86
2021/09/10 10:29:59;;;;;;;8.15;4.78;;;;;;;;;;4956585;28;20810;-87
2021/09/10 10:32:32;;;;;;;7.60;4.78;;;;;;;;;;4953931;28;20789;-86
2021/09/10 10:35:18;;;;;;;6.80;5.00;;;;;;;;;;4956898;28;20454;-88
2021/09/10 10:37:47;;;;;;;8.18;4.63;;;;;;;;;;4954496;28;20413;-85
2021/09/10 10:40:32;;;;;;;7.70;4.60;;;;;;;;;;4960060;28;20422;-87
2021/09/10 10:43:02;;;;;;;5.03;4.30;;;;;;;;;;4958909;28;20750;-86
2021/09/10 10:46:12;;;;;;;7.07;4.50;;;;;;;;;;4955716;28;20522;-87
2021/09/10 10:49:01;;;;;;;6.85;4.63;;;;;;;;;;4952005;28;20443;-87
2021/09/10 10:51:52;;;;;;;5.90;4.40;;;;;;;;;;4959606;28;21047;-87
2021/09/10 10:54:26;;;;;;;7.20;4.20;;;;;;;;;;4956043;28;20422;-86
2021/09/10 10:56:53;;;;;;;5.38;4.22;;;;;;;;;;4959244;28;20434;-86
2021/09/10 10:59:37;;;;;;;9.13;3.95;;;;;;;;;;4956924;28;20406;-85
2021/09/10 11:02:25;;;;;;;7.82;4.13;;;;;;;;;;4962323;28;20516;-86
2021/09/10 11:05:00;;;;;;;6.95;4.47;;;;;;;;;;4958191;28;20411;-86
2021/09/10 11:07:28;;;;;;;9.30;4.30;;;;;;;;;;4957652;28;20801;-86
2021/09/10 11:09:59;;;;;;;6.40;4.07;;;;;;;;;;4959042;28;20422;-86
2021/09/10 11:12:27;;;;;;;5.57;4.10;;;;;;;;;;4960220;28;20578;-85
2021/09/10 11:14:53;;;;;;;7.43;4.20;;;;;;;;;;4960331;28;20436;-86
2021/09/10 11:17:26;;;;;;;7.28;4.18;;;;;;;;;;4961133;28;20406;-87
2021/09/10 11:19:56;;;;;;;6.00;4.20;;;;;;;;;;4962343;28;20430;-87
2021/09/10 11:22:24;;;;;;;6.05;4.10;;;;;;;;;;4964063;28;20426;-85
2021/09/10 11:25:07;;;;;;;6.30;4.10;;;;;;;;;;4966154;28;20418;-87
2021/09/10 11:27:38;;;;;;;5.43;3.90;;;;;;;;;;4964662;28;20775;-86
2021/09/10 11:30:08;;;;;;;4.50;3.85;;;;;;;;;;4964712;28;20448;-85
2021/09/10 11:32:35;;;;;;;6.05;3.83;;;;;;;;;;4962837;28;20541;-86
2021/09/10 11:35:15;;;;;;;5.17;3.57;;;;;;;;;;4961204;28;20436;-86
2021/09/10 11:37:51;;;;;;;7.40;3.97;;;;;;;;;;4959184;28;20414;-85
2021/09/10 11:40:29;;;;;;;7.13;3.72;;;;;;;;;;4965829;28;20417;-86
2021/09/10 11:43:03;;;;;;;5.00;3.80;;;;;;;;;;4959329;28;20406;-87
2021/09/10 11:45:34;;;;;;;6.50;3.70;;;;;;;;;;4965956;28;20411;-85
2021/09/10 11:48:01;;;;;;;5.57;3.60;;;;;;;;;;4966447;28;21173;-87
2021/09/10 11:50:45;;;;;;;5.65;3.72;;;;;;;;;;4948408;28;20980;-86
2021/09/10 11:53:14;;;;;;;5.93;3.90;;;;;;;;;;4963575;28;20447;-85
2021/09/10 11:55:55;;;;;;;5.97;3.83;;;;;;;;;;4957184;28;21112;-85
2021/09/10 11:58:32;;;;;;;9.40;3.85;;;;;;;;;;4960460;28;20416;-87
2021/09/10 12:01:14;;;;;;;6.57;3.53;;;;;;;;;;4956746;28;20445;-87
2021/09/10 12:03:47;;;;;;;4.85;3.33;;;;;;;;;;4959499;28;20430;-87
2021/09/10 12:06:19;;;;;;;5.55;3.65;;;;;;;;;;4965615;28;20501;-86
2021/09/10 12:09:11;;;;;;;6.05;3.70;;;;;;;;;;4960512;28;20921;-86
2021/09/10 12:11:39;;;;;;;6.20;4.00;;;;;;;;;;4967172;28;20418;-86
2021/09/10 12:14:16;;;;;;;6.05;4.00;;;;;;;;;;4956590;28;20438;-87
2021/09/10 12:16:43;;;;;;;7.53;4.05;;;;;;;;;;4956434;28;20420;-87
2021/09/10 12:19:11;;;;;;;7.90;4.15;;;;;;;;;;4961039;28;20426;-88
2021/09/10 12:21:39;;;;;;;7.15;4.10;;;;;;;;;;4957432;28;20444;-86
2021/09/10 12:24:07;;;;;;;5.85;4.05;;;;;;;;;;4977356;28;20439;-87
2021/09/10 12:26:48;;;;;;;6.88;4.30;;;;;;;;;;4978807;28;20418;-88
2021/09/10 12:29:20;;;;;;;4.70;3.72;;;;;;;;;;4981127;28;20386;-86
2021/09/10 12:31:47;;;;;;;4.78;3.95;;;;;;;;;;4969075;28;20469;-86
2021/09/10 12:34:13;;;;;;;6.85;4.50;;;;;;;;;;4960885;28;20422;-87
2021/09/10 12:36:44;;;;;;;5.20;4.33;;;;;;;;;;4966729;28;20429;-87
2021/09/10 12:39:11;;;;;;;5.63;4.50;;;;;;;;;;4965746;28;20914;-86
2021/09/10 12:41:38;;;;;;;6.22;4.15;;;;;;;;;;4966225;28;20763;-85
2021/09/10 12:44:08;;;;;;;7.43;4.10;;;;;;;;;;4966758;28;20407;-87
2021/09/10 12:46:35;;;;;;;6.40;4.37;;;;;;;;;;4965676;28;20411;-87
2021/09/10 12:49:02;;;;;;;6.33;4.67;;;;;;;;;;4966250;28;20768;-86
2021/09/10 12:51:29;;;;;;;7.72;4.47;;;;;;;;;;4966412;28;20415;-86
2021/09/10 12:53:57;;;;;;;5.28;4.55;;;;;;;;;;4966048;28;20419;-86
2021/09/10 12:56:25;;;;;;;6.60;5.00;;;;;;;;;;4967029;28;20414;-86
2021/09/10 12:58:51;;;;;;;6.32;4.80;;;;;;;;;;4963290;28;20422;-86
2021/09/10 13:01:19;;;;;;;6.93;4.87;;;;;;;;;;4966474;28;20410;-87
2021/09/10 13:03:47;;;;;;;7.70;5.05;;;;;;;;;;4961929;28;20433;-86
2021/09/10 13:06:14;;;;;;;8.65;5.07;;;;;;;;;;4965754;28;20413;-87
2021/09/10 13:08:41;;;;;;;7.25;4.80;;;;;;;;;;4963907;28;20418;-86
2021/09/10 13:11:10;;;;;;;9.07;5.30;;;;;;;;;;4965703;28;20406;-86
2021/09/10 13:13:36;;;;;;;6.30;5.10;;;;;;;;;;4961689;28;20402;-86
2021/09/10 13:16:04;;;;;;;6.28;5.20;;;;;;;;;;4965568;28;20454;-87
2021/09/10 13:18:31;;;;;;;7.80;5.25;;;;;;;;;;4964529;28;20407;-86
2021/09/10 13:20:57;;;;;;;8.13;5.05;;;;;;;;;;4965684;28;20406;-87
2021/09/10 13:23:24;;;;;;;7.63;5.28;;;;;;;;;;4962927;28;20437;-86
2021/09/10 13:25:51;;;;;;;6.40;5.15;;;;;;;;;;4966063;28;20453;-86
2021/09/10 13:28:20;;;;;;;7.75;5.53;;;;;;;;;;4960286;28;20427;-88
2021/09/10 13:30:48;;;;;;;8.70;5.97;;;;;;;;;;4965998;28;20442;-86
2021/09/10 13:33:14;;;;;;;7.50;5.88;;;;;;;;;;4963613;28;20414;-87
2021/09/10 13:35:41;;;;;;;8.32;5.80;;;;;;;;;;4964296;28;20426;-87
2021/09/10 13:38:09;;;;;;;8.07;6.37;;;;;;;;;;4962637;28;20933;-87
2021/09/10 13:40:35;;;;;;;7.75;5.97;;;;;;;;;;4960426;28;21240;-87
2021/09/10 13:43:03;;;;;;;7.53;5.97;;;;;;;;;;4961610;28;20940;-87
2021/09/10 13:45:32;;;;;;;7.60;5.82;;;;;;;;;;4965122;28;20717;-87
2021/09/10 13:47:59;;;;;;;8.43;5.37;;;;;;;;;;4965467;28;20402;-87
2021/09/10 13:50:26;;;;;;;7.90;6.03;;;;;;;;;;4956882;28;20411;-87
2021/09/10 13:52:53;;;;;;;7.90;5.72;;;;;;;;;;4961880;28;20417;-87
2021/09/10 13:55:20;;;;;;;8.52;6.10;;;;;;;;;;4965432;28;20456;-86
2021/09/10 13:57:47;;;;;;;6.53;5.93;;;;;;;;;;4966544;28;20411;-87
2021/09/10 14:00:15;;;;;;;7.57;5.82;;;;;;;;;;4958837;28;20410;-87
2021/09/10 14:02:43;;;;;;;6.75;6.05;;;;;;;;;;4960489;28;20410;-88
2021/09/10 14:05:11;;;;;;;8.57;6.10;;;;;;;;;;4965542;28;20914;-87
2021/09/10 14:07:38;;;;;;;6.77;5.47;;;;;;;;;;4963070;28;20914;-87
2021/09/10 14:10:06;;;;;;;10.05;5.97;;;;;;;;;;4963738;28;20441;-86
2021/09/10 14:12:33;;;;;;;7.97;5.78;;;;;;;;;;4964077;28;20432;-88
2021/09/10 14:15:00;;;;;;;6.93;5.22;;;;;;;;;;4956820;28;20429;-87
2021/09/10 14:17:27;;;;;;;7.68;5.50;;;;;;;;;;4964761;28;20417;-86
2021/09/10 14:19:55;;;;;;;8.30;5.70;;;;;;;;;;4958262;28;20521;-86
2021/09/10 14:22:22;;;;;;;7.63;5.63;;;;;;;;;;4962548;28;20433;-88
2021/09/10 14:24:48;;;;;;;7.40;5.28;;;;;;;;;;4968035;28;20426;-87
2021/09/10 14:27:15;;;;;;;6.93;5.05;;;;;;;;;;4962862;28;20418;-88
2021/09/10 14:29:42;;;;;;;6.32;5.60;;;;;;;;;;4967470;28;20414;-89
2021/09/10 14:32:09;;;;;;;7.63;5.38;;;;;;;;;;4968156;28;20412;-89
2021/09/10 14:34:37;;;;;;;7.25;5.28;;;;;;;;;;4966701;28;20752;-88
2021/09/10 14:37:05;;;;;;;8.30;5.35;;;;;;;;;;4962174;28;20521;-89
2021/09/10 14:39:32;;;;;;;7.82;5.43;;;;;;;;;;4968477;28;20417;-89
2021/09/10 14:41:59;;;;;;;5.78;5.03;;;;;;;;;;4968210;28;20410;-89